sensor_id;sensor_type;location;lat;lon;timestamp;P1;durP1;ratioP1;P2;durP2;ratioP2
4806;SDS011;2417;52.482;13.432;2023-06-24T00:01:48;25.17;;;10.50;;
4806;SDS011;2417;52.482;13.432;2023-06-24T00:04:16;30.10;;;11.23;;
4806;SDS011;2417;52.482;13.432;2023-06-24T00:06:47;26.30;;;11.70;;
4806;SDS011;2417;52.482;13.432;2023-06-24T00:09:15;28.40;;;11.20;;
4806;SDS011;2417;52.482;13.432;2023-06-24T00:11:43;30.37;;;11.53;;
4806;SDS011;2417;52.482;13.432;2023-06-24T00:14:11;28.37;;;11.63;;
4806;SDS011;2417;52.482;13.432;2023-06-24T00:16:42;31.20;;;12.13;;
4806;SDS011;2417;52.482;13.432;2023-06-24T00:19:10;30.33;;;13.10;;
4806;SDS011;2417;52.482;13.432;2023-06-24T00:21:38;31.13;;;13.03;;
4806;SDS011;2417;52.482;13.432;2023-06-24T00:24:06;32.23;;;13.47;;
4806;SDS011;2417;52.482;13.432;2023-06-24T00:26:35;28.43;;;12.97;;
4806;SDS011;2417;52.482;13.432;2023-06-24T00:29:03;29.67;;;13.40;;
4806;SDS011;2417;52.482;13.432;2023-06-24T00:31:31;31.70;;;14.50;;
4806;SDS011;2417;52.482;13.432;2023-06-24T00:34:00;34.97;;;15.80;;
4806;SDS011;2417;52.482;13.432;2023-06-24T00:36:28;34.90;;;15.43;;
4806;SDS011;2417;52.482;13.432;2023-06-24T00:38:58;34.50;;;15.20;;
4806;SDS011;2417;52.482;13.432;2023-06-24T00:41:30;37.70;;;16.20;;
4806;SDS011;2417;52.482;13.432;2023-06-24T00:43:57;33.80;;;15.70;;
4806;SDS011;2417;52.482;13.432;2023-06-24T00:46:26;38.93;;;16.77;;
4806;SDS011;2417;52.482;13.432;2023-06-24T00:48:54;39.50;;;17.83;;
4806;SDS011;2417;52.482;13.432;2023-06-24T00:51:26;43.80;;;18.40;;
4806;SDS011;2417;52.482;13.432;2023-06-24T00:53:56;41.57;;;18.40;;
4806;SDS011;2417;52.482;13.432;2023-06-24T00:56:25;38.77;;;18.27;;
4806;SDS011;2417;52.482;13.432;2023-06-24T00:58:53;41.97;;;19.90;;
4806;SDS011;2417;52.482;13.432;2023-06-24T01:01:22;38.07;;;18.10;;
4806;SDS011;2417;52.482;13.432;2023-06-24T01:03:51;43.17;;;19.63;;
4806;SDS011;2417;52.482;13.432;2023-06-24T01:06:20;39.93;;;20.13;;
4806;SDS011;2417;52.482;13.432;2023-06-24T01:08:49;48.80;;;20.67;;
4806;SDS011;2417;52.482;13.432;2023-06-24T01:11:17;46.43;;;20.50;;
4806;SDS011;2417;52.482;13.432;2023-06-24T01:13:45;52.93;;;20.47;;
4806;SDS011;2417;52.482;13.432;2023-06-24T01:16:15;44.93;;;21.10;;
4806;SDS011;2417;52.482;13.432;2023-06-24T01:18:46;58.73;;;25.20;;
4806;SDS011;2417;52.482;13.432;2023-06-24T01:21:15;45.77;;;21.33;;
4806;SDS011;2417;52.482;13.432;2023-06-24T01:23:56;48.93;;;22.10;;
4806;SDS011;2417;52.482;13.432;2023-06-24T01:26:45;51.03;;;20.97;;
4806;SDS011;2417;52.482;13.432;2023-06-24T01:29:20;42.50;;;19.50;;
4806;SDS011;2417;52.482;13.432;2023-06-24T01:31:54;42.60;;;18.97;;
4806;SDS011;2417;52.482;13.432;2023-06-24T01:34:25;40.13;;;17.93;;
4806;SDS011;2417;52.482;13.432;2023-06-24T01:37:02;42.57;;;18.03;;
4806;SDS011;2417;52.482;13.432;2023-06-24T01:39:33;38.37;;;17.70;;
4806;SDS011;2417;52.482;13.432;2023-06-24T01:42:05;38.53;;;17.40;;
4806;SDS011;2417;52.482;13.432;2023-06-24T01:44:34;41.13;;;18.40;;
4806;SDS011;2417;52.482;13.432;2023-06-24T01:47:04;41.10;;;18.60;;
4806;SDS011;2417;52.482;13.432;2023-06-24T01:49:33;41.00;;;18.70;;
4806;SDS011;2417;52.482;13.432;2023-06-24T01:52:04;50.63;;;21.73;;
4806;SDS011;2417;52.482;13.432;2023-06-24T01:54:33;55.17;;;25.77;;
4806;SDS011;2417;52.482;13.432;2023-06-24T01:57:01;44.87;;;21.10;;
4806;SDS011;2417;52.482;13.432;2023-06-24T01:59:30;48.77;;;19.10;;
4806;SDS011;2417;52.482;13.432;2023-06-24T02:01:58;41.33;;;18.53;;
4806;SDS011;2417;52.482;13.432;2023-06-24T02:04:28;42.70;;;19.00;;
4806;SDS011;2417;52.482;13.432;2023-06-24T02:06:58;49.63;;;20.23;;
4806;SDS011;2417;52.482;13.432;2023-06-24T02:09:28;45.57;;;21.83;;
4806;SDS011;2417;52.482;13.432;2023-06-24T02:11:57;41.80;;;18.70;;
4806;SDS011;2417;52.482;13.432;2023-06-24T02:14:26;41.07;;;18.27;;
4806;SDS011;2417;52.482;13.432;2023-06-24T02:16:55;42.50;;;16.93;;
4806;SDS011;2417;52.482;13.432;2023-06-24T02:19:24;41.77;;;18.77;;
4806;SDS011;2417;52.482;13.432;2023-06-24T02:21:57;43.53;;;17.40;;
4806;SDS011;2417;52.482;13.432;2023-06-24T02:24:26;41.60;;;17.23;;
4806;SDS011;2417;52.482;13.432;2023-06-24T02:26:56;47.23;;;18.17;;
4806;SDS011;2417;52.482;13.432;2023-06-24T02:29:24;38.23;;;18.00;;
4806;SDS011;2417;52.482;13.432;2023-06-24T02:31:53;40.00;;;18.30;;
4806;SDS011;2417;52.482;13.432;2023-06-24T02:34:22;43.17;;;18.30;;
4806;SDS011;2417;52.482;13.432;2023-06-24T02:36:50;36.93;;;17.30;;
4806;SDS011;2417;52.482;13.432;2023-06-24T02:39:20;38.07;;;16.90;;
4806;SDS011;2417;52.482;13.432;2023-06-24T02:41:49;37.10;;;16.23;;
4806;SDS011;2417;52.482;13.432;2023-06-24T02:44:17;38.50;;;17.23;;
4806;SDS011;2417;52.482;13.432;2023-06-24T02:46:45;36.70;;;16.27;;
4806;SDS011;2417;52.482;13.432;2023-06-24T02:49:14;42.63;;;16.97;;
4806;SDS011;2417;52.482;13.432;2023-06-24T02:51:43;33.30;;;15.30;;
4806;SDS011;2417;52.482;13.432;2023-06-24T02:54:14;38.70;;;16.30;;
4806;SDS011;2417;52.482;13.432;2023-06-24T02:57:04;35.77;;;15.23;;
4806;SDS011;2417;52.482;13.432;2023-06-24T02:59:53;35.33;;;15.40;;
4806;SDS011;2417;52.482;13.432;2023-06-24T03:02:26;40.77;;;14.73;;
4806;SDS011;2417;52.482;13.432;2023-06-24T03:04:55;34.60;;;15.23;;
4806;SDS011;2417;52.482;13.432;2023-06-24T03:07:24;41.40;;;16.17;;
4806;SDS011;2417;52.482;13.432;2023-06-24T03:09:52;33.13;;;14.47;;
4806;SDS011;2417;52.482;13.432;2023-06-24T03:12:21;42.43;;;15.53;;
4806;SDS011;2417;52.482;13.432;2023-06-24T03:14:50;33.03;;;14.07;;
4806;SDS011;2417;52.482;13.432;2023-06-24T03:17:18;38.10;;;13.70;;
4806;SDS011;2417;52.482;13.432;2023-06-24T03:20:08;34.60;;;14.17;;
4806;SDS011;2417;52.482;13.432;2023-06-24T03:22:37;36.50;;;14.47;;
4806;SDS011;2417;52.482;13.432;2023-06-24T03:25:10;34.00;;;13.80;;
4806;SDS011;2417;52.482;13.432;2023-06-24T03:27:40;34.73;;;13.30;;
4806;SDS011;2417;52.482;13.432;2023-06-24T03:30:10;35.13;;;14.60;;
4806;SDS011;2417;52.482;13.432;2023-06-24T03:32:43;42.53;;;14.07;;
4806;SDS011;2417;52.482;13.432;2023-06-24T03:35:15;37.67;;;14.43;;
4806;SDS011;2417;52.482;13.432;2023-06-24T03:37:48;35.20;;;14.27;;
4806;SDS011;2417;52.482;13.432;2023-06-24T03:40:16;34.40;;;13.37;;
4806;SDS011;2417;52.482;13.432;2023-06-24T03:42:46;31.87;;;13.40;;
4806;SDS011;2417;52.482;13.432;2023-06-24T03:45:14;32.20;;;13.70;;
4806;SDS011;2417;52.482;13.432;2023-06-24T03:47:44;36.40;;;13.97;;
4806;SDS011;2417;52.482;13.432;2023-06-24T03:50:12;34.53;;;13.73;;
4806;SDS011;2417;52.482;13.432;2023-06-24T03:52:40;33.80;;;13.90;;
4806;SDS011;2417;52.482;13.432;2023-06-24T03:55:08;32.17;;;13.33;;
4806;SDS011;2417;52.482;13.432;2023-06-24T03:57:35;35.97;;;14.17;;
4806;SDS011;2417;52.482;13.432;2023-06-24T04:00:06;33.50;;;13.87;;
4806;SDS011;2417;52.482;13.432;2023-06-24T04:02:42;32.90;;;14.30;;
4806;SDS011;2417;52.482;13.432;2023-06-24T04:05:12;37.53;;;14.53;;
4806;SDS011;2417;52.482;13.432;2023-06-24T04:07:41;33.20;;;14.23;;
4806;SDS011;2417;52.482;13.432;2023-06-24T04:10:16;34.93;;;13.90;;
4806;SDS011;2417;52.482;13.432;2023-06-24T04:12:45;32.30;;;12.80;;
4806;SDS011;2417;52.482;13.432;2023-06-24T04:15:15;47.77;;;13.47;;
4806;SDS011;2417;52.482;13.432;2023-06-24T04:17:43;34.80;;;13.00;;
4806;SDS011;2417;52.482;13.432;2023-06-24T04:20:11;31.83;;;12.80;;
4806;SDS011;2417;52.482;13.432;2023-06-24T04:22:40;31.20;;;12.90;;
4806;SDS011;2417;52.482;13.432;2023-06-24T04:25:09;31.40;;;13.33;;
4806;SDS011;2417;52.482;13.432;2023-06-24T04:27:37;31.87;;;13.60;;
4806;SDS011;2417;52.482;13.432;2023-06-24T04:30:07;32.37;;;13.20;;
4806;SDS011;2417;52.482;13.432;2023-06-24T04:32:37;33.00;;;13.20;;
4806;SDS011;2417;52.482;13.432;2023-06-24T04:35:05;34.23;;;13.43;;
4806;SDS011;2417;52.482;13.432;2023-06-24T04:37:35;31.27;;;13.20;;
4806;SDS011;2417;52.482;13.432;2023-06-24T04:40:04;31.53;;;13.20;;
4806;SDS011;2417;52.482;13.432;2023-06-24T04:42:32;30.60;;;12.60;;
4806;SDS011;2417;52.482;13.432;2023-06-24T04:45:01;28.60;;;12.63;;
4806;SDS011;2417;52.482;13.432;2023-06-24T04:47:31;33.00;;;12.30;;
4806;SDS011;2417;52.482;13.432;2023-06-24T04:50:01;26.83;;;10.90;;
4806;SDS011;2417;52.482;13.432;2023-06-24T04:52:29;26.27;;;10.13;;
4806;SDS011;2417;52.482;13.432;2023-06-24T04:55:00;36.13;;;10.20;;
4806;SDS011;2417;52.482;13.432;2023-06-24T04:57:32;27.87;;;10.47;;
4806;SDS011;2417;52.482;13.432;2023-06-24T05:00:00;32.07;;;10.90;;
4806;SDS011;2417;52.482;13.432;2023-06-24T05:02:30;28.30;;;10.73;;
4806;SDS011;2417;52.482;13.432;2023-06-24T05:05:03;30.97;;;10.83;;
4806;SDS011;2417;52.482;13.432;2023-06-24T05:07:35;31.40;;;11.50;;
4806;SDS011;2417;52.482;13.432;2023-06-24T05:10:08;33.83;;;11.40;;
4806;SDS011;2417;52.482;13.432;2023-06-24T05:12:38;31.40;;;10.90;;
4806;SDS011;2417;52.482;13.432;2023-06-24T05:15:10;28.80;;;11.37;;
4806;SDS011;2417;52.482;13.432;2023-06-24T05:17:39;31.87;;;11.57;;
4806;SDS011;2417;52.482;13.432;2023-06-24T05:20:09;30.50;;;11.80;;
4806;SDS011;2417;52.482;13.432;2023-06-24T05:22:37;30.97;;;12.10;;
4806;SDS011;2417;52.482;13.432;2023-06-24T05:25:05;28.77;;;11.60;;
4806;SDS011;2417;52.482;13.432;2023-06-24T05:27:34;27.23;;;11.23;;
4806;SDS011;2417;52.482;13.432;2023-06-24T05:30:02;32.20;;;10.70;;
4806;SDS011;2417;52.482;13.432;2023-06-24T05:32:30;28.40;;;10.73;;
4806;SDS011;2417;52.482;13.432;2023-06-24T05:34:58;27.43;;;10.23;;
4806;SDS011;2417;52.482;13.432;2023-06-24T05:37:28;28.43;;;10.57;;
4806;SDS011;2417;52.482;13.432;2023-06-24T05:39:56;27.53;;;10.13;;
4806;SDS011;2417;52.482;13.432;2023-06-24T05:42:27;31.50;;;10.50;;
4806;SDS011;2417;52.482;13.432;2023-06-24T05:44:55;37.67;;;10.53;;
4806;SDS011;2417;52.482;13.432;2023-06-24T05:47:23;31.63;;;12.00;;
4806;SDS011;2417;52.482;13.432;2023-06-24T05:49:51;29.10;;;10.80;;
4806;SDS011;2417;52.482;13.432;2023-06-24T05:52:19;29.90;;;9.97;;
4806;SDS011;2417;52.482;13.432;2023-06-24T05:54:49;27.17;;;10.50;;
4806;SDS011;2417;52.482;13.432;2023-06-24T05:57:17;25.97;;;9.53;;
4806;SDS011;2417;52.482;13.432;2023-06-24T05:59:45;24.77;;;9.73;;
4806;SDS011;2417;52.482;13.432;2023-06-24T06:02:13;30.80;;;10.00;;
4806;SDS011;2417;52.482;13.432;2023-06-24T06:04:41;29.03;;;10.00;;
4806;SDS011;2417;52.482;13.432;2023-06-24T06:07:09;30.43;;;9.70;;
4806;SDS011;2417;52.482;13.432;2023-06-24T06:09:37;26.83;;;9.40;;
4806;SDS011;2417;52.482;13.432;2023-06-24T06:12:07;37.63;;;10.07;;
4806;SDS011;2417;52.482;13.432;2023-06-24T06:14:35;23.90;;;8.50;;
4806;SDS011;2417;52.482;13.432;2023-06-24T06:17:03;24.10;;;9.07;;
4806;SDS011;2417;52.482;13.432;2023-06-24T06:19:31;30.10;;;9.23;;
4806;SDS011;2417;52.482;13.432;2023-06-24T06:21:59;25.50;;;9.27;;
4806;SDS011;2417;52.482;13.432;2023-06-24T06:24:27;26.27;;;8.60;;
4806;SDS011;2417;52.482;13.432;2023-06-24T06:26:55;24.70;;;8.57;;
4806;SDS011;2417;52.482;13.432;2023-06-24T06:29:26;28.10;;;9.00;;
4806;SDS011;2417;52.482;13.432;2023-06-24T06:31:54;23.87;;;8.43;;
4806;SDS011;2417;52.482;13.432;2023-06-24T06:34:24;24.60;;;8.30;;
4806;SDS011;2417;52.482;13.432;2023-06-24T06:36:52;25.60;;;8.47;;
4806;SDS011;2417;52.482;13.432;2023-06-24T06:39:20;23.70;;;7.80;;
4806;SDS011;2417;52.482;13.432;2023-06-24T06:41:48;22.77;;;7.33;;
4806;SDS011;2417;52.482;13.432;2023-06-24T06:44:16;25.57;;;7.90;;
4806;SDS011;2417;52.482;13.432;2023-06-24T06:46:45;23.73;;;7.50;;
4806;SDS011;2417;52.482;13.432;2023-06-24T06:49:14;24.17;;;6.80;;
4806;SDS011;2417;52.482;13.432;2023-06-24T06:51:42;28.27;;;7.60;;
4806;SDS011;2417;52.482;13.432;2023-06-24T06:54:10;30.30;;;8.07;;
4806;SDS011;2417;52.482;13.432;2023-06-24T06:56:38;27.33;;;7.30;;
4806;SDS011;2417;52.482;13.432;2023-06-24T06:59:06;25.10;;;7.20;;
4806;SDS011;2417;52.482;13.432;2023-06-24T07:01:34;25.73;;;7.77;;
4806;SDS011;2417;52.482;13.432;2023-06-24T07:04:04;28.70;;;9.17;;
4806;SDS011;2417;52.482;13.432;2023-06-24T07:06:32;26.30;;;7.80;;
4806;SDS011;2417;52.482;13.432;2023-06-24T07:09:01;30.17;;;6.90;;
4806;SDS011;2417;52.482;13.432;2023-06-24T07:11:29;25.67;;;7.10;;
4806;SDS011;2417;52.482;13.432;2023-06-24T07:13:57;26.23;;;7.10;;
4806;SDS011;2417;52.482;13.432;2023-06-24T07:16:25;28.13;;;6.70;;
4806;SDS011;2417;52.482;13.432;2023-06-24T07:18:53;25.13;;;6.00;;
4806;SDS011;2417;52.482;13.432;2023-06-24T07:21:22;25.17;;;6.50;;
4806;SDS011;2417;52.482;13.432;2023-06-24T07:23:50;24.03;;;6.20;;
4806;SDS011;2417;52.482;13.432;2023-06-24T07:26:18;24.60;;;6.30;;
4806;SDS011;2417;52.482;13.432;2023-06-24T07:28:46;25.70;;;6.00;;
4806;SDS011;2417;52.482;13.432;2023-06-24T07:31:33;25.10;;;6.27;;
4806;SDS011;2417;52.482;13.432;2023-06-24T07:34:01;24.77;;;5.90;;
4806;SDS011;2417;52.482;13.432;2023-06-24T07:36:31;22.20;;;5.10;;
4806;SDS011;2417;52.482;13.432;2023-06-24T07:38:59;23.73;;;5.50;;
4806;SDS011;2417;52.482;13.432;2023-06-24T07:41:27;23.53;;;5.63;;
4806;SDS011;2417;52.482;13.432;2023-06-24T07:43:55;22.80;;;5.47;;
4806;SDS011;2417;52.482;13.432;2023-06-24T07:46:23;27.60;;;5.83;;
4806;SDS011;2417;52.482;13.432;2023-06-24T07:48:53;26.83;;;4.93;;
4806;SDS011;2417;52.482;13.432;2023-06-24T07:51:21;27.60;;;5.30;;
4806;SDS011;2417;52.482;13.432;2023-06-24T07:53:51;27.50;;;4.70;;
4806;SDS011;2417;52.482;13.432;2023-06-24T07:56:19;25.87;;;4.83;;
4806;SDS011;2417;52.482;13.432;2023-06-24T07:58:46;26.70;;;5.10;;
4806;SDS011;2417;52.482;13.432;2023-06-24T08:01:14;26.10;;;4.80;;
4806;SDS011;2417;52.482;13.432;2023-06-24T08:03:42;26.27;;;5.30;;
4806;SDS011;2417;52.482;13.432;2023-06-24T08:06:10;26.70;;;5.07;;
4806;SDS011;2417;52.482;13.432;2023-06-24T08:08:38;25.80;;;5.80;;
4806;SDS011;2417;52.482;13.432;2023-06-24T08:11:08;26.60;;;5.03;;
4806;SDS011;2417;52.482;13.432;2023-06-24T08:13:36;26.40;;;6.40;;
4806;SDS011;2417;52.482;13.432;2023-06-24T08:16:04;25.33;;;5.20;;
4806;SDS011;2417;52.482;13.432;2023-06-24T08:18:32;25.80;;;5.70;;
4806;SDS011;2417;52.482;13.432;2023-06-24T08:21:00;26.23;;;5.87;;
4806;SDS011;2417;52.482;13.432;2023-06-24T08:23:28;26.70;;;5.93;;
4806;SDS011;2417;52.482;13.432;2023-06-24T08:25:56;31.10;;;5.90;;
4806;SDS011;2417;52.482;13.432;2023-06-24T08:29:20;27.93;;;5.80;;
4806;SDS011;2417;52.482;13.432;2023-06-24T08:31:48;27.40;;;5.30;;
4806;SDS011;2417;52.482;13.432;2023-06-24T08:34:16;26.40;;;6.10;;
4806;SDS011;2417;52.482;13.432;2023-06-24T08:36:43;25.37;;;5.70;;
4806;SDS011;2417;52.482;13.432;2023-06-24T08:39:11;26.90;;;5.60;;
4806;SDS011;2417;52.482;13.432;2023-06-24T08:41:40;26.23;;;6.33;;
4806;SDS011;2417;52.482;13.432;2023-06-24T08:44:10;28.20;;;6.30;;
4806;SDS011;2417;52.482;13.432;2023-06-24T08:46:40;27.43;;;6.33;;
4806;SDS011;2417;52.482;13.432;2023-06-24T08:49:10;38.50;;;11.20;;
4806;SDS011;2417;52.482;13.432;2023-06-24T08:51:41;36.10;;;10.20;;
4806;SDS011;2417;52.482;13.432;2023-06-24T08:54:14;30.77;;;7.83;;
4806;SDS011;2417;52.482;13.432;2023-06-24T08:56:42;30.73;;;8.17;;
4806;SDS011;2417;52.482;13.432;2023-06-24T08:59:09;52.63;;;16.53;;
4806;SDS011;2417;52.482;13.432;2023-06-24T09:01:37;45.23;;;12.93;;
4806;SDS011;2417;52.482;13.432;2023-06-24T09:04:07;111.33;;;37.30;;
4806;SDS011;2417;52.482;13.432;2023-06-24T09:06:35;29.70;;;7.10;;
4806;SDS011;2417;52.482;13.432;2023-06-24T09:09:03;34.83;;;9.47;;
4806;SDS011;2417;52.482;13.432;2023-06-24T09:11:31;47.70;;;12.93;;
4806;SDS011;2417;52.482;13.432;2023-06-24T09:13:59;36.83;;;9.90;;
4806;SDS011;2417;52.482;13.432;2023-06-24T09:16:29;30.30;;;7.63;;
4806;SDS011;2417;52.482;13.432;2023-06-24T09:18:57;34.70;;;8.80;;
4806;SDS011;2417;52.482;13.432;2023-06-24T09:21:28;32.23;;;9.33;;
4806;SDS011;2417;52.482;13.432;2023-06-24T09:23:58;28.93;;;7.97;;
4806;SDS011;2417;52.482;13.432;2023-06-24T09:26:26;26.43;;;5.70;;
4806;SDS011;2417;52.482;13.432;2023-06-24T09:28:57;27.87;;;6.90;;
4806;SDS011;2417;52.482;13.432;2023-06-24T09:31:24;32.43;;;9.37;;
4806;SDS011;2417;52.482;13.432;2023-06-24T09:33:56;27.93;;;6.07;;
4806;SDS011;2417;52.482;13.432;2023-06-24T09:36:24;28.30;;;6.83;;
4806;SDS011;2417;52.482;13.432;2023-06-24T09:38:56;27.10;;;5.67;;
4806;SDS011;2417;52.482;13.432;2023-06-24T09:41:35;27.50;;;7.33;;
4806;SDS011;2417;52.482;13.432;2023-06-24T09:44:07;26.80;;;6.97;;
4806;SDS011;2417;52.482;13.432;2023-06-24T09:46:35;25.50;;;5.20;;
4806;SDS011;2417;52.482;13.432;2023-06-24T09:49:12;24.90;;;4.77;;
4806;SDS011;2417;52.482;13.432;2023-06-24T09:51:42;24.47;;;4.90;;
4806;SDS011;2417;52.482;13.432;2023-06-24T09:57:02;25.80;;;4.90;;
4806;SDS011;2417;52.482;13.432;2023-06-24T09:59:31;26.10;;;5.70;;
4806;SDS011;2417;52.482;13.432;2023-06-24T10:02:00;26.60;;;5.00;;
4806;SDS011;2417;52.482;13.432;2023-06-24T10:04:29;26.70;;;4.30;;
4806;SDS011;2417;52.482;13.432;2023-06-24T10:06:59;24.50;;;4.63;;
4806;SDS011;2417;52.482;13.432;2023-06-24T10:09:27;23.80;;;4.47;;
4806;SDS011;2417;52.482;13.432;2023-06-24T10:11:55;26.23;;;4.80;;
4806;SDS011;2417;52.482;13.432;2023-06-24T10:14:24;23.20;;;4.10;;
4806;SDS011;2417;52.482;13.432;2023-06-24T10:17:01;24.00;;;4.30;;
4806;SDS011;2417;52.482;13.432;2023-06-24T10:19:29;25.13;;;4.47;;
4806;SDS011;2417;52.482;13.432;2023-06-24T10:21:57;24.40;;;4.23;;
4806;SDS011;2417;52.482;13.432;2023-06-24T10:24:28;24.40;;;4.70;;
4806;SDS011;2417;52.482;13.432;2023-06-24T10:27:00;24.73;;;5.17;;
4806;SDS011;2417;52.482;13.432;2023-06-24T10:29:33;25.23;;;4.57;;
4806;SDS011;2417;52.482;13.432;2023-06-24T10:32:02;25.20;;;5.07;;
4806;SDS011;2417;52.482;13.432;2023-06-24T10:34:31;30.70;;;7.50;;
4806;SDS011;2417;52.482;13.432;2023-06-24T10:37:00;25.77;;;5.00;;
4806;SDS011;2417;52.482;13.432;2023-06-24T10:39:36;26.30;;;5.00;;
4806;SDS011;2417;52.482;13.432;2023-06-24T10:45:17;35.53;;;10.10;;
4806;SDS011;2417;52.482;13.432;2023-06-24T10:47:46;36.73;;;9.83;;
4806;SDS011;2417;52.482;13.432;2023-06-24T10:50:15;30.30;;;7.30;;
4806;SDS011;2417;52.482;13.432;2023-06-24T10:52:44;25.40;;;4.70;;
4806;SDS011;2417;52.482;13.432;2023-06-24T10:55:16;29.17;;;6.93;;
4806;SDS011;2417;52.482;13.432;2023-06-24T10:57:44;35.87;;;10.70;;
4806;SDS011;2417;52.482;13.432;2023-06-24T11:00:12;28.63;;;7.07;;
4806;SDS011;2417;52.482;13.432;2023-06-24T11:02:42;27.50;;;6.20;;
4806;SDS011;2417;52.482;13.432;2023-06-24T11:05:11;36.17;;;9.63;;
4806;SDS011;2417;52.482;13.432;2023-06-24T11:07:38;25.53;;;5.83;;
4806;SDS011;2417;52.482;13.432;2023-06-24T11:10:07;24.70;;;4.70;;
4806;SDS011;2417;52.482;13.432;2023-06-24T11:12:39;28.40;;;5.30;;
4806;SDS011;2417;52.482;13.432;2023-06-24T11:15:08;25.13;;;5.67;;
4806;SDS011;2417;52.482;13.432;2023-06-24T11:17:36;24.33;;;4.90;;
4806;SDS011;2417;52.482;13.432;2023-06-24T11:20:08;23.53;;;4.47;;
4806;SDS011;2417;52.482;13.432;2023-06-24T11:22:36;25.50;;;3.40;;
4806;SDS011;2417;52.482;13.432;2023-06-24T11:25:04;24.57;;;4.20;;
4806;SDS011;2417;52.482;13.432;2023-06-24T11:27:32;24.17;;;4.70;;
4806;SDS011;2417;52.482;13.432;2023-06-24T11:30:00;24.80;;;4.83;;
4806;SDS011;2417;52.482;13.432;2023-06-24T11:32:37;24.33;;;4.70;;
4806;SDS011;2417;52.482;13.432;2023-06-24T11:35:06;26.27;;;5.30;;
4806;SDS011;2417;52.482;13.432;2023-06-24T11:37:37;24.70;;;4.50;;
4806;SDS011;2417;52.482;13.432;2023-06-24T11:40:08;24.77;;;4.70;;
4806;SDS011;2417;52.482;13.432;2023-06-24T11:42:37;27.00;;;5.57;;
4806;SDS011;2417;52.482;13.432;2023-06-24T11:45:07;29.50;;;4.73;;
4806;SDS011;2417;52.482;13.432;2023-06-24T11:47:38;24.60;;;4.70;;
4806;SDS011;2417;52.482;13.432;2023-06-24T11:50:07;24.23;;;4.90;;
4806;SDS011;2417;52.482;13.432;2023-06-24T11:52:40;27.03;;;4.60;;
4806;SDS011;2417;52.482;13.432;2023-06-24T11:55:15;25.33;;;4.90;;
4806;SDS011;2417;52.482;13.432;2023-06-24T11:57:46;30.00;;;4.10;;
4806;SDS011;2417;52.482;13.432;2023-06-24T12:00:15;23.47;;;4.23;;
4806;SDS011;2417;52.482;13.432;2023-06-24T12:02:43;24.00;;;4.23;;
4806;SDS011;2417;52.482;13.432;2023-06-24T12:05:11;24.57;;;4.13;;
4806;SDS011;2417;52.482;13.432;2023-06-24T12:07:40;24.13;;;4.17;;
4806;SDS011;2417;52.482;13.432;2023-06-24T12:10:08;24.37;;;4.93;;
4806;SDS011;2417;52.482;13.432;2023-06-24T12:12:36;24.87;;;4.47;;
4806;SDS011;2417;52.482;13.432;2023-06-24T12:15:05;23.27;;;4.00;;
4806;SDS011;2417;52.482;13.432;2023-06-24T12:17:35;24.43;;;4.50;;
4806;SDS011;2417;52.482;13.432;2023-06-24T12:20:04;31.70;;;4.50;;
4806;SDS011;2417;52.482;13.432;2023-06-24T12:22:32;26.27;;;5.23;;
4806;SDS011;2417;52.482;13.432;2023-06-24T12:25:01;24.97;;;5.60;;
4806;SDS011;2417;52.482;13.432;2023-06-24T12:27:29;24.03;;;4.70;;
4806;SDS011;2417;52.482;13.432;2023-06-24T12:29:57;27.10;;;5.67;;
4806;SDS011;2417;52.482;13.432;2023-06-24T12:32:25;25.00;;;4.40;;
4806;SDS011;2417;52.482;13.432;2023-06-24T12:34:53;25.10;;;4.40;;
4806;SDS011;2417;52.482;13.432;2023-06-24T12:37:21;24.27;;;4.87;;
4806;SDS011;2417;52.482;13.432;2023-06-24T12:39:49;24.67;;;4.20;;
4806;SDS011;2417;52.482;13.432;2023-06-24T12:42:20;24.90;;;4.63;;
4806;SDS011;2417;52.482;13.432;2023-06-24T12:44:48;23.97;;;4.10;;
4806;SDS011;2417;52.482;13.432;2023-06-24T12:47:19;27.10;;;3.83;;
4806;SDS011;2417;52.482;13.432;2023-06-24T12:49:47;27.90;;;4.90;;
4806;SDS011;2417;52.482;13.432;2023-06-24T12:52:15;37.30;;;12.90;;
4806;SDS011;2417;52.482;13.432;2023-06-24T12:54:42;31.90;;;9.83;;
4806;SDS011;2417;52.482;13.432;2023-06-24T12:57:11;26.97;;;6.20;;
4806;SDS011;2417;52.482;13.432;2023-06-24T12:59:41;34.93;;;6.13;;
4806;SDS011;2417;52.482;13.432;2023-06-24T13:02:09;26.00;;;4.87;;
4806;SDS011;2417;52.482;13.432;2023-06-24T13:04:39;27.70;;;6.27;;
4806;SDS011;2417;52.482;13.432;2023-06-24T13:07:07;25.10;;;5.17;;
4806;SDS011;2417;52.482;13.432;2023-06-24T13:09:36;27.13;;;6.10;;
4806;SDS011;2417;52.482;13.432;2023-06-24T13:12:04;29.90;;;7.30;;
4806;SDS011;2417;52.482;13.432;2023-06-24T13:14:32;38.70;;;10.30;;
4806;SDS011;2417;52.482;13.432;2023-06-24T13:17:01;34.73;;;8.87;;
4806;SDS011;2417;52.482;13.432;2023-06-24T13:19:29;40.07;;;11.40;;
4806;SDS011;2417;52.482;13.432;2023-06-24T13:21:58;33.93;;;9.57;;
4806;SDS011;2417;52.482;13.432;2023-06-24T13:24:27;35.53;;;8.70;;
4806;SDS011;2417;52.482;13.432;2023-06-24T13:26:55;33.27;;;7.10;;
4806;SDS011;2417;52.482;13.432;2023-06-24T13:29:22;35.97;;;10.40;;
4806;SDS011;2417;52.482;13.432;2023-06-24T13:31:50;36.07;;;10.13;;
4806;SDS011;2417;52.482;13.432;2023-06-24T13:34:21;29.37;;;6.83;;
4806;SDS011;2417;52.482;13.432;2023-06-24T13:36:49;28.27;;;6.40;;
4806;SDS011;2417;52.482;13.432;2023-06-24T13:39:16;28.47;;;5.40;;
4806;SDS011;2417;52.482;13.432;2023-06-24T13:41:45;27.07;;;6.10;;
4806;SDS011;2417;52.482;13.432;2023-06-24T13:44:12;27.93;;;6.70;;
4806;SDS011;2417;52.482;13.432;2023-06-24T13:46:40;25.50;;;4.93;;
4806;SDS011;2417;52.482;13.432;2023-06-24T13:49:09;25.37;;;4.67;;
4806;SDS011;2417;52.482;13.432;2023-06-24T13:51:39;25.63;;;5.60;;
4806;SDS011;2417;52.482;13.432;2023-06-24T13:54:07;26.90;;;5.10;;
4806;SDS011;2417;52.482;13.432;2023-06-24T13:56:35;25.60;;;4.87;;
4806;SDS011;2417;52.482;13.432;2023-06-24T13:59:02;28.33;;;5.63;;
4806;SDS011;2417;52.482;13.432;2023-06-24T14:01:30;26.30;;;5.20;;
4806;SDS011;2417;52.482;13.432;2023-06-24T14:03:58;27.07;;;4.80;;
4806;SDS011;2417;52.482;13.432;2023-06-24T14:06:26;24.33;;;4.70;;
4806;SDS011;2417;52.482;13.432;2023-06-24T14:08:55;25.53;;;4.97;;
4806;SDS011;2417;52.482;13.432;2023-06-24T14:11:23;25.43;;;4.70;;
4806;SDS011;2417;52.482;13.432;2023-06-24T14:13:51;26.33;;;4.80;;
4806;SDS011;2417;52.482;13.432;2023-06-24T14:16:21;25.47;;;4.63;;
4806;SDS011;2417;52.482;13.432;2023-06-24T14:18:49;27.77;;;5.33;;
4806;SDS011;2417;52.482;13.432;2023-06-24T14:21:17;28.30;;;5.33;;
4806;SDS011;2417;52.482;13.432;2023-06-24T14:23:45;25.70;;;5.60;;
4806;SDS011;2417;52.482;13.432;2023-06-24T14:26:15;27.27;;;4.67;;
4806;SDS011;2417;52.482;13.432;2023-06-24T14:28:43;29.20;;;6.90;;
4806;SDS011;2417;52.482;13.432;2023-06-24T14:31:11;26.30;;;5.70;;
4806;SDS011;2417;52.482;13.432;2023-06-24T14:33:39;26.03;;;4.90;;
4806;SDS011;2417;52.482;13.432;2023-06-24T14:36:07;26.43;;;4.70;;
4806;SDS011;2417;52.482;13.432;2023-06-24T14:38:35;26.97;;;4.77;;
4806;SDS011;2417;52.482;13.432;2023-06-24T14:41:03;29.47;;;5.40;;
4806;SDS011;2417;52.482;13.432;2023-06-24T14:43:35;28.33;;;5.63;;
4806;SDS011;2417;52.482;13.432;2023-06-24T14:46:03;27.50;;;5.77;;
4806;SDS011;2417;52.482;13.432;2023-06-24T14:48:31;28.83;;;5.13;;
4806;SDS011;2417;52.482;13.432;2023-06-24T14:50:59;25.53;;;4.77;;
4806;SDS011;2417;52.482;13.432;2023-06-24T14:53:27;26.23;;;5.60;;
4806;SDS011;2417;52.482;13.432;2023-06-24T14:55:56;26.20;;;5.33;;
4806;SDS011;2417;52.482;13.432;2023-06-24T14:58:24;30.13;;;5.20;;
4806;SDS011;2417;52.482;13.432;2023-06-24T15:00:53;25.50;;;4.83;;